Beaverdam, Utah
Current Conditions -  °F | °C
As of 10:51 AM on Saturday 25 Oct 2014 (Local Time) from KLGU Reporting Station
Clear Clear  
Wind Chill: 53°   Ceiling: Unl
Heat Index: 53°   Visibility: 10mi
Dew Point: 36°   Wind: 3mph
Humidity: 52%   Direction: 320°NW
Pressure: 30.07"   Gusts: NA
Location:  41.8005°N, 112.082°W
Report Text: KLGU 251651Z AUTO 32003KT 10SM CLR 12/02 A3007 RMK AO2 SLP168 T01170022 TSNO
Loading
Personal Weather Stations






























Interactive Weather Map
Tropical Storm Tracking
New forecast layout! Learn more

10-Day Weather Forecast

Advertisements
Track Severe Weather on mobile